»·PEaware :: N5311W KHQM-S23

N5311W :: KHQM-S23

FLIGHT INFORMATION

Flight Status: Arrived
Operator: Privately registered:
United States
More flights under this callsign
Pilot: Benjamin V. (8550)
Aircraft: PIPER PA-31/31P NAVAJO CHIEFTAIN
(PA31)
More flights by this aircraft type
Origin: KHQM Bowerman
United States
Destination: S23 Ione Mun
United States
More flights between these airports :: More routes between these airports
Route: OZALU V27 SEA V120 GEG DIANN
File this flight plan on PilotEdge
Remarks:
Altitude:
(Current/Filed)
15,000ft
Speed:
(Current/Filed)
220kts
Departed: 25-Apr-20 08:38 PM
Arrived: 25-Apr-20 10:07 PM
Distance/Time
Traveled:
283nm/1:28
Distance/Time
To Go:
Arrived

Flight Plot

Page will automatically refresh every two minutes.

Flight plan parsing failed; only flown route is shown


Map Options




Map Legend


Flown Route
Filed Route
Departure Airport
Arrival Airport
Navaid (VOR, NDB)
Fix

Horizontal Profiles

Position Reports

Time Latitude Longitude Heading Altitude Ground
Speed
25-Apr-20 20:23 46.973650 -123.930825 322 18ft 0kts
25-Apr-20 20:24 46.973650 -123.930825 322 18ft 0kts
25-Apr-20 20:25 46.973650 -123.930825 322 18ft 0kts
25-Apr-20 20:26 46.973650 -123.930825 322 18ft 0kts
25-Apr-20 20:27 46.973649 -123.930824 322 18ft 0kts
25-Apr-20 20:28 46.973420 -123.930570 322 18ft 0kts
25-Apr-20 20:29 46.973424 -123.930575 322 18ft 0kts
25-Apr-20 20:30 46.973190 -123.930020 111 18ft 0kts
25-Apr-20 20:31 46.972900 -123.927050 154 18ft 0kts
25-Apr-20 20:32 46.972900 -123.927050 154 18ft 0kts
25-Apr-20 20:33 46.972899 -123.927050 154 18ft 0kts
25-Apr-20 20:34 46.972899 -123.927050 154 18ft 0kts
25-Apr-20 20:36 46.972899 -123.927049 154 18ft 0kts
25-Apr-20 20:37 46.972898 -123.927049 154 18ft 0kts
25-Apr-20 20:38 46.971191 -123.935968 260 20ft 93kts
25-Apr-20 20:39 46.977393 -123.972779 350 1628ft 120kts
25-Apr-20 20:40 46.993510 -123.932475 101 3150ft 134kts
25-Apr-20 20:41 46.996819 -123.879754 74 4777ft 138kts
25-Apr-20 20:42 47.014162 -123.829188 59 6588ft 131kts
25-Apr-20 20:43 47.031613 -123.776069 54 7950ft 150kts
25-Apr-20 20:44 47.056125 -123.727006 57 9374ft 147kts
25-Apr-20 20:45 47.075952 -123.673742 67 10565ft 151kts
25-Apr-20 20:46 47.091667 -123.615200 67 11667ft 157kts
25-Apr-20 20:47 47.107971 -123.554611 66 12736ft 161kts
25-Apr-20 20:48 47.124672 -123.492870 66 13758ft 164kts
25-Apr-20 20:49 47.141624 -123.429713 65 14733ft 167kts
25-Apr-20 20:50 47.160248 -123.356112 71 14999ft 224kts
25-Apr-20 20:51 47.178802 -123.278826 69 15000ft 238kts
25-Apr-20 20:52 47.190531 -123.229835 72 14997ft 240kts
25-Apr-20 20:52 47.206814 -123.155800 76 14996ft 258kts
25-Apr-20 20:54 47.235228 -123.039139 69 14995ft 260kts
25-Apr-20 20:55 47.251798 -122.972280 72 14999ft 258kts
25-Apr-20 20:55 47.267755 -122.888591 84 15120ft 255kts
25-Apr-20 20:56 47.294332 -122.792501 65 15251ft 254kts
25-Apr-20 20:57 47.310118 -122.733913 70 15204ft 260kts
25-Apr-20 20:58 47.327782 -122.630577 93 15149ft 258kts
25-Apr-20 20:59 47.354098 -122.538190 62 14885ft 252kts
25-Apr-20 21:00 47.386368 -122.449364 50 14907ft 240kts
25-Apr-20 21:01 47.424564 -122.365725 70 14901ft 256kts
25-Apr-20 21:02 47.439928 -122.262992 104 15004ft 258kts
25-Apr-20 21:03 47.425476 -122.159502 105 14996ft 258kts
25-Apr-20 21:04 47.431743 -122.052744 83 14997ft 267kts
25-Apr-20 21:05 47.434337 -121.942657 92 14993ft 269kts
25-Apr-20 21:06 47.433066 -121.832093 92 14988ft 269kts
25-Apr-20 21:07 47.430029 -121.721757 95 14979ft 268kts
25-Apr-20 21:08 47.427514 -121.611623 97 14971ft 267kts
25-Apr-20 21:09 47.426942 -121.570795 89 14969ft 269kts
25-Apr-20 21:10 47.428093 -121.460085 91 14960ft 270kts
25-Apr-20 21:11 47.426856 -121.348994 94 14956ft 270kts
25-Apr-20 21:12 47.423775 -121.237694 93 14950ft 271kts
25-Apr-20 21:13 47.421526 -121.126253 93 14948ft 271kts
25-Apr-20 21:14 47.419466 -121.014928 93 14944ft 272kts
25-Apr-20 21:15 47.417085 -120.903098 93 14944ft 272kts
25-Apr-20 21:16 47.414190 -120.791338 93 14948ft 273kts
25-Apr-20 21:17 47.411679 -120.682016 93 14946ft 273kts
25-Apr-20 21:18 47.409439 -120.588798 93 14944ft 273kts
25-Apr-20 21:19 47.406781 -120.476048 93 14918ft 274kts
25-Apr-20 21:20 47.404057 -120.363459 93 14914ft 274kts
25-Apr-20 21:21 47.401275 -120.251210 93 14911ft 274kts
25-Apr-20 21:22 47.398474 -120.138667 93 14911ft 275kts
25-Apr-20 21:23 47.395625 -120.025922 93 14910ft 275kts
25-Apr-20 21:24 47.392641 -119.912750 93 14905ft 276kts
25-Apr-20 21:25 47.389560 -119.799566 93 14897ft 275kts
25-Apr-20 21:26 47.386388 -119.686738 93 14891ft 275kts
25-Apr-20 21:27 47.383074 -119.574055 93 14884ft 274kts
25-Apr-20 21:28 47.379664 -119.461512 94 14883ft 274kts
25-Apr-20 21:29 47.386472 -119.349555 80 14886ft 274kts
25-Apr-20 21:30 47.399019 -119.238336 80 14893ft 274kts
25-Apr-20 21:31 47.411260 -119.127360 80 14890ft 274kts
25-Apr-20 21:32 47.423327 -119.016335 80 14890ft 273kts
25-Apr-20 21:33 47.435356 -118.905333 80 14887ft 273kts
25-Apr-20 21:34 47.447226 -118.794538 80 14885ft 274kts
25-Apr-20 21:35 47.459186 -118.681828 80 14871ft 279kts
25-Apr-20 21:36 47.470939 -118.569831 81 14879ft 274kts
25-Apr-20 21:37 47.482520 -118.458406 81 14877ft 274kts
25-Apr-20 21:38 47.493975 -118.346951 81 14875ft 274kts
25-Apr-20 21:39 47.505339 -118.235377 81 14874ft 275kts
25-Apr-20 21:40 47.516627 -118.123735 81 14871ft 275kts
25-Apr-20 21:41 47.527816 -118.011721 82 14869ft 275kts
25-Apr-20 21:42 47.538904 -117.899517 82 14865ft 275kts
25-Apr-20 21:43 47.548704 -117.799406 82 14843ft 282kts
25-Apr-20 21:44 47.559672 -117.686247 82 14861ft 276kts
25-Apr-20 21:45 47.600586 -117.600461 18 14872ft 250kts
25-Apr-20 21:46 47.662953 -117.554658 17 14860ft 250kts
25-Apr-20 21:47 47.725297 -117.508302 17 14860ft 250kts
25-Apr-20 21:48 47.787590 -117.461975 17 14857ft 250kts
25-Apr-20 21:49 47.849989 -117.415366 17 14850ft 250kts
25-Apr-20 21:50 47.912088 -117.368725 17 14844ft 250kts
25-Apr-20 21:51 47.974341 -117.321938 17 14843ft 250kts
25-Apr-20 21:52 48.036419 -117.275126 17 14841ft 249kts
25-Apr-20 21:53 48.098559 -117.228145 17 14842ft 250kts
25-Apr-20 21:54 48.161201 -117.186914 357 14839ft 235kts
25-Apr-20 21:55 48.220838 -117.203027 331 14842ft 214kts
25-Apr-20 21:56 48.271580 -117.224963 330 14690ft 178kts
25-Apr-20 21:57 48.319890 -117.246004 331 13500ft 181kts
25-Apr-20 21:58 48.368346 -117.266898 332 12363ft 180kts
25-Apr-20 21:59 48.416233 -117.287608 333 11240ft 179kts
25-Apr-20 22:00 48.464593 -117.308601 334 9994ft 185kts
25-Apr-20 22:01 48.514616 -117.330292 336 8717ft 188kts
25-Apr-20 22:02 48.564787 -117.352047 336 7484ft 186kts
25-Apr-20 22:03 48.610783 -117.372030 340 6043ft 172kts
25-Apr-20 22:04 48.658811 -117.392210 347 3914ft 143kts
25-Apr-20 22:05 48.691119 -117.407417 349 2442ft 97kts
25-Apr-20 22:06 48.710387 -117.413703 349 2111ft 20kts
25-Apr-20 22:07 48.711042 -117.413923 348 2111ft 0kts
25-Apr-20 22:08 48.712190 -117.414371 344 2111ft 16kts
25-Apr-20 22:09 48.713441 -117.414323 165 2111ft 0kts
25-Apr-20 22:10 48.713441 -117.414323 165 2111ft 0kts
25-Apr-20 22:11 48.713441 -117.414323 165 2111ft 0kts
25-Apr-20 22:12 48.713441 -117.414323 165 2111ft 0kts
25-Apr-20 22:13 48.713441 -117.414323 165 2111ft 0kts

Navigation Log

Ident Type
Flight plan parsing failed, navigation log unavailable